Pat Boone — WDH3305 — position and weather

sailwx.info

Track history (hours):
 
Tides and Currents Weather Stations Pressure Air Temp Water Temp Dewpoint Dewpoint Depression Visibility Wind Speed Wind Dir Waves Ship Positions

Pat Boone

Owner: Boone Towing, Channelview, TX. More information available from US FCC via Universal Licensing System and Coast Guard Vessel Documentation Center.

Last reported at 2018-Feb-25 00:11 UTC. Time now 2018-Feb-25 10:15 UTC.
Position N 29°46' W 095°05'.

Length 15 m; draft 3 m.

MMSI: 367606370.

Date/timePositionNaut miles runAvg speedWind from/ knotsBaromVisibWave heightAir tempDewpointWater temp
2018-Feb-25 00:11N 29°46' W 095°05'7 5.8
2018-Feb-24 22:54N 29°44' W 095°14'0 0.3
2018-Feb-24 21:58N 29°43' W 095°14'2 4.5
2018-Feb-24 21:26N 29°45' W 095°11'2 4.8
2018-Feb-24 20:56N 29°44' W 095°09'3 5.8
2018-Feb-24 20:25N 29°45' W 095°06'1 1.4
2018-Feb-24 19:55N 29°46' W 095°05'3 1.3
2018-Feb-24 17:40N 29°44' W 095°03'2 5.8
2018-Feb-24 17:17N 29°43' W 095°01'2 6.8
2018-Feb-24 17:00N 29°42' W 094°59'3 5.1
2018-Feb-24 16:30N 29°41' W 094°57'2 2.4
2018-Feb-24 15:39N 29°43' W 094°56'1 0.9
2018-Feb-24 14:58N 29°43' W 094°57'2 2.4
2018-Feb-24 14:13N 29°42' W 094°55'1 3.1
2018-Feb-24 14:00N 29°41' W 094°55'2 3.3
2018-Feb-24 13:30N 29°41' W 094°57'3 5.2
2018-Feb-24 13:00N 29°42' W 094°60'7 1.8
2018-Feb-24 09:08N 29°46' W 095°06'0 0.2
2018-Feb-24 08:01N 29°46' W 095°06'1 0.5
2018-Feb-24 06:19N 29°46' W 095°05'0 0.0
2018-Feb-24 04:06N 29°46' W 095°05'2 6.1
2018-Feb-24 03:48N 29°44' W 095°07'2 6.5
2018-Feb-24 03:30N 29°44' W 095°09'4 5.7
2018-Feb-24 02:51N 29°43' W 095°13'1 1.3
2018-Feb-24 01:53N 29°43' W 095°14'4 6.6
2018-Feb-24 01:20N 29°45' W 095°11'3 6.8
2018-Feb-24 00:55N 29°44' W 095°07'3 6.5
2018-Feb-24 00:27N 29°46' W 095°04'3 6.4
2018-Feb-24 00:00N 29°44' W 095°02'1 0.4
2018-Feb-23 22:34N 29°44' W 095°01'0 3.6
2018-Feb-23 22:30N 29°44' W 095°02'4 3.5
2018-Feb-23 21:14N 29°46' W 095°06'0 0.1
2018-Feb-23 18:24N 29°46' W 095°06'1 1.5
2018-Feb-23 17:28N 29°46' W 095°05'3 7.3
2018-Feb-23 17:00N 29°44' W 095°01'2 3.0
2018-Feb-23 16:28N 29°43' W 095°03'0 0.0
2018-Feb-23 07:44N 29°43' W 095°03'1 6.2
2018-Feb-23 07:30N 29°42' W 095°01'3 5.4
2018-Feb-23 07:00N 29°41' W 094°58'2 4.3
2018-Feb-23 06:29N 29°41' W 094°56'2 3.1
2018-Feb-23 05:57N 29°43' W 094°56'1 0.5
2018-Feb-23 04:36N 29°43' W 094°57'1 2.7
2018-Feb-23 04:22N 29°43' W 094°56'1 2.2
2018-Feb-23 03:59N 29°42' W 094°56'1 1.0
2018-Feb-23 03:25N 29°42' W 094°55'1 3.1
2018-Feb-23 03:01N 29°40' W 094°56'2 3.4
2018-Feb-23 02:30N 29°41' W 094°58'2 3.3
2018-Feb-23 02:01N 29°41' W 094°59'14 0.6
2018-Feb-22 04:55N 29°43' W 095°15'4 1.6
2018-Feb-22 02:07N 29°45' W 095°10'1 3.5
2018-Feb-22 01:48N 29°44' W 095°09'9 0.2
2018-Feb-20 08:22N 29°41' W 094°59'8 4.2
2018-Feb-20 06:31N 29°46' W 095°06'4 0.9
2018-Feb-20 02:13N 29°45' W 095°10'1 4.3
2018-Feb-20 01:56N 29°44' W 095°09'2 4.3
2018-Feb-20 01:30N 29°44' W 095°07'3 0.4
2018-Feb-19 18:36N 29°45' W 095°04'1 6.9
2018-Feb-19 18:30N 29°44' W 095°03'3 6.0
2018-Feb-19 18:00N 29°42' W 095°01'3 6.6
2018-Feb-19 17:30N 29°40' W 094°58'4 7.3
2018-Feb-19 17:00N 29°36' W 094°57'3 6.7
2018-Feb-19 16:30N 29°34' W 094°55'6 6.4
2018-Feb-19 15:34N 29°28' W 094°52'1 5.6
2018-Feb-19 15:27N 29°28' W 094°52'3 5.7
2018-Feb-19 15:00N 29°27' W 094°55'3 5.0
2018-Feb-19 14:29N 29°28' W 094°58'0 0.6
2018-Feb-19 14:00N 29°28' W 094°58'0 0.2
2018-Feb-19 13:29N 29°28' W 094°58'2 5.1
2018-Feb-19 13:00N 29°27' W 094°55'4 4.5
2018-Feb-19 12:07N 29°31' W 094°53'1 8.6
2018-Feb-19 11:59N 29°32' W 094°53'4 8.9
2018-Feb-19 11:30N 29°35' W 094°56'4 8.8
2018-Feb-19 11:00N 29°39' W 094°58'6 8.1
2018-Feb-19 10:18N 29°44' W 095°02'2 8.2
2018-Feb-19 10:00N 29°45' W 095°04'4 7.7
2018-Feb-19 09:28N 29°44' W 095°09'2 2.5
2018-Feb-19 08:49N 29°45' W 095°10'0 0.1
2018-Feb-19 08:29N 29°45' W 095°10'0 0.0
2018-Feb-19 08:00N 29°45' W 095°10'0 0.0
2018-Feb-19 07:30N 29°45' W 095°10'0 0.0
2018-Feb-19 06:59N 29°45' W 095°10'0 0.0
2018-Feb-19 06:29N 29°45' W 095°10'0 0.7
2018-Feb-19 06:00N 29°45' W 095°10'1 2.4
2018-Feb-19 05:30N 29°46' W 095°11'2 0.8
2018-Feb-19 02:21N 29°44' W 095°09'4 2.1
2018-Feb-19 00:39N 29°46' W 095°05'2 8.1
2018-Feb-19 00:22N 29°44' W 095°03'3 7.5
2018-Feb-19 00:00N 29°42' W 095°01'4 8.2
2018-Feb-18 23:30N 29°39' W 094°58'5 9.1
2018-Feb-18 23:00N 29°35' W 094°56'21 4.8
2018-Feb-18 18:41N 29°15' W 095°01'3 7.0
2018-Feb-18 18:12N 29°12' W 095°03'3 7.2
2018-Feb-18 17:43N 29°10' W 095°07'1 3.6
2018-Feb-18 17:19N 29°11' W 095°08'3 5.4
2018-Feb-18 16:46N 29°12' W 095°11'1 3.3
2018-Feb-18 16:20N 29°13' W 095°13'2 0.1
2018-Feb-18 03:44N 29°15' W 095°13'22 1.0
2018-Feb-17 05:02N 29°21' W 094°49'1 0.5
2018-Feb-17 03:26N 29°21' W 094°48'0 0.8
2018-Feb-17 02:59N 29°22' W 094°48'3 5.9
2018-Feb-17 02:30N 29°24' W 094°49'4 7.1
2018-Feb-17 01:59N 29°28' W 094°51'3 7.1
2018-Feb-17 01:30N 29°31' W 094°53'4 7.3
2018-Feb-17 01:00N 29°34' W 094°55'4 7.5
2018-Feb-17 00:30N 29°37' W 094°57'4 7.7
2018-Feb-17 00:00N 29°41' W 094°59'9 2.9
2018-Feb-16 21:02N 29°46' W 095°06'0 3.3
2018-Feb-16 21:00N 29°46' W 095°06'0 0.2
2018-Feb-16 20:26N 29°46' W 095°06'3 5.0
2018-Feb-16 19:46N 29°44' W 095°03'1 4.7
2018-Feb-16 19:30N 29°44' W 095°02'3 5.5
2018-Feb-16 19:00N 29°42' W 094°60'2 4.4
2018-Feb-16 18:30N 29°41' W 094°57'2 3.4
2018-Feb-16 17:59N 29°41' W 094°55'1 1.8
2018-Feb-16 17:30N 29°42' W 094°55'2 3.0
2018-Feb-16 16:58N 29°44' W 094°56'3 0.5
2018-Feb-16 10:43N 29°41' W 094°59'5 0.6
2018-Feb-16 02:46N 29°45' W 094°56'1 3.8
2018-Feb-16 02:23N 29°44' W 094°56'2 2.8
2018-Feb-16 01:34N 29°42' W 094°55'2 4.8
2018-Feb-16 01:13N 29°40' W 094°56'2 5.6
2018-Feb-16 00:55N 29°41' W 094°58'2 5.4
2018-Feb-16 00:29N 29°42' W 095°00'3 0.6
2018-Feb-15 19:00N 29°43' W 094°57'2 3.0
2018-Feb-15 18:21N 29°42' W 094°55'2 3.6
2018-Feb-15 17:44N 29°41' W 094°57'1 5.2
2018-Feb-15 17:30N 29°41' W 094°59'4 6.5
2018-Feb-15 16:54N 29°44' W 095°02'4 0.4
2018-Feb-15 06:30N 29°46' W 095°06'3 5.1
2018-Feb-15 06:00N 29°44' W 095°08'4 6.4
2018-Feb-15 05:18N 29°43' W 095°13'2 6.5
2018-Feb-15 04:58N 29°44' W 095°16'0 0.4
2018-Feb-15 04:25N 29°44' W 095°16'3 5.2
2018-Feb-15 03:47N 29°44' W 095°12'3 6.6
2018-Feb-15 03:22N 29°44' W 095°09'3 6.8
2018-Feb-15 02:54N 29°45' W 095°06'  
Track history (hours):
 
Tides and Currents Weather Stations Pressure Air Temp Water Temp Dewpoint Dewpoint Depression Visibility Wind Speed Wind Dir Waves Ship Positions

Pat Boone

Owner: Boone Towing, Channelview, TX. More information available from US FCC via Universal Licensing System and Coast Guard Vessel Documentation Center.

Last reported at 2018-Feb-25 00:11 UTC. Time now 2018-Feb-25 10:15 UTC.
Position N 29°46' W 095°05'.

Length 15 m; draft 3 m.

MMSI: 367606370.

Date/timePositionNaut miles runAvg speedWind from/ knotsBaromVisibWave heightAir tempDewpointWater temp
2018-Feb-25 00:11N 29°46' W 095°05'7 5.8
2018-Feb-24 22:54N 29°44' W 095°14'0 0.3
2018-Feb-24 21:58N 29°43' W 095°14'2 4.5
2018-Feb-24 21:26N 29°45' W 095°11'2 4.8
2018-Feb-24 20:56N 29°44' W 095°09'3 5.8
2018-Feb-24 20:25N 29°45' W 095°06'1 1.4
2018-Feb-24 19:55N 29°46' W 095°05'3 1.3
2018-Feb-24 17:40N 29°44' W 095°03'2 5.8
2018-Feb-24 17:17N 29°43' W 095°01'2 6.8
2018-Feb-24 17:00N 29°42' W 094°59'3 5.1
2018-Feb-24 16:30N 29°41' W 094°57'2 2.4
2018-Feb-24 15:39N 29°43' W 094°56'1 0.9
2018-Feb-24 14:58N 29°43' W 094°57'2 2.4
2018-Feb-24 14:13N 29°42' W 094°55'1 3.1
2018-Feb-24 14:00N 29°41' W 094°55'2 3.3
2018-Feb-24 13:30N 29°41' W 094°57'3 5.2
2018-Feb-24 13:00N 29°42' W 094°60'7 1.8
2018-Feb-24 09:08N 29°46' W 095°06'0 0.2
2018-Feb-24 08:01N 29°46' W 095°06'1 0.5
2018-Feb-24 06:19N 29°46' W 095°05'0 0.0
2018-Feb-24 04:06N 29°46' W 095°05'2 6.1
2018-Feb-24 03:48N 29°44' W 095°07'2 6.5
2018-Feb-24 03:30N 29°44' W 095°09'4 5.7
2018-Feb-24 02:51N 29°43' W 095°13'1 1.3
2018-Feb-24 01:53N 29°43' W 095°14'4 6.6
2018-Feb-24 01:20N 29°45' W 095°11'3 6.8
2018-Feb-24 00:55N 29°44' W 095°07'3 6.5
2018-Feb-24 00:27N 29°46' W 095°04'3 6.4
2018-Feb-24 00:00N 29°44' W 095°02'1 0.4
2018-Feb-23 22:34N 29°44' W 095°01'0 3.6
2018-Feb-23 22:30N 29°44' W 095°02'4 3.5
2018-Feb-23 21:14N 29°46' W 095°06'0 0.1
2018-Feb-23 18:24N 29°46' W 095°06'1 1.5
2018-Feb-23 17:28N 29°46' W 095°05'3 7.3
2018-Feb-23 17:00N 29°44' W 095°01'2 3.0
2018-Feb-23 16:28N 29°43' W 095°03'0 0.0
2018-Feb-23 07:44N 29°43' W 095°03'1 6.2
2018-Feb-23 07:30N 29°42' W 095°01'3 5.4
2018-Feb-23 07:00N 29°41' W 094°58'2 4.3
2018-Feb-23 06:29N 29°41' W 094°56'2 3.1
2018-Feb-23 05:57N 29°43' W 094°56'1 0.5
2018-Feb-23 04:36N 29°43' W 094°57'1 2.7
2018-Feb-23 04:22N 29°43' W 094°56'1 2.2
2018-Feb-23 03:59N 29°42' W 094°56'1 1.0
2018-Feb-23 03:25N 29°42' W 094°55'1 3.1
2018-Feb-23 03:01N 29°40' W 094°56'2 3.4
2018-Feb-23 02:30N 29°41' W 094°58'2 3.3
2018-Feb-23 02:01N 29°41' W 094°59'14 0.6
2018-Feb-22 04:55N 29°43' W 095°15'4 1.6
2018-Feb-22 02:07N 29°45' W 095°10'1 3.5
2018-Feb-22 01:48N 29°44' W 095°09'9 0.2
2018-Feb-20 08:22N 29°41' W 094°59'8 4.2
2018-Feb-20 06:31N 29°46' W 095°06'4 0.9
2018-Feb-20 02:13N 29°45' W 095°10'1 4.3
2018-Feb-20 01:56N 29°44' W 095°09'2 4.3
2018-Feb-20 01:30N 29°44' W 095°07'3 0.4
2018-Feb-19 18:36N 29°45' W 095°04'1 6.9
2018-Feb-19 18:30N 29°44' W 095°03'3 6.0
2018-Feb-19 18:00N 29°42' W 095°01'3 6.6
2018-Feb-19 17:30N 29°40' W 094°58'4 7.3
2018-Feb-19 17:00N 29°36' W 094°57'3 6.7
2018-Feb-19 16:30N 29°34' W 094°55'6 6.4
2018-Feb-19 15:34N 29°28' W 094°52'1 5.6
2018-Feb-19 15:27N 29°28' W 094°52'3 5.7
2018-Feb-19 15:00N 29°27' W 094°55'3 5.0
2018-Feb-19 14:29N 29°28' W 094°58'0 0.6
2018-Feb-19 14:00N 29°28' W 094°58'0 0.2
2018-Feb-19 13:29N 29°28' W 094°58'2 5.1
2018-Feb-19 13:00N 29°27' W 094°55'4 4.5
2018-Feb-19 12:07N 29°31' W 094°53'1 8.6
2018-Feb-19 11:59N 29°32' W 094°53'4 8.9
2018-Feb-19 11:30N 29°35' W 094°56'4 8.8
2018-Feb-19 11:00N 29°39' W 094°58'6 8.1
2018-Feb-19 10:18N 29°44' W 095°02'2 8.2
2018-Feb-19 10:00N 29°45' W 095°04'4 7.7
2018-Feb-19 09:28N 29°44' W 095°09'2 2.5
2018-Feb-19 08:49N 29°45' W 095°10'0 0.1
2018-Feb-19 08:29N 29°45' W 095°10'0 0.0
2018-Feb-19 08:00N 29°45' W 095°10'0 0.0
2018-Feb-19 07:30N 29°45' W 095°10'0 0.0
2018-Feb-19 06:59N 29°45' W 095°10'0 0.0
2018-Feb-19 06:29N 29°45' W 095°10'0 0.7
2018-Feb-19 06:00N 29°45' W 095°10'1 2.4
2018-Feb-19 05:30N 29°46' W 095°11'2 0.8
2018-Feb-19 02:21N 29°44' W 095°09'4 2.1
2018-Feb-19 00:39N 29°46' W 095°05'2 8.1
2018-Feb-19 00:22N 29°44' W 095°03'3 7.5
2018-Feb-19 00:00N 29°42' W 095°01'4 8.2
2018-Feb-18 23:30N 29°39' W 094°58'5 9.1
2018-Feb-18 23:00N 29°35' W 094°56'21 4.8
2018-Feb-18 18:41N 29°15' W 095°01'3 7.0
2018-Feb-18 18:12N 29°12' W 095°03'3 7.2
2018-Feb-18 17:43N 29°10' W 095°07'1 3.6
2018-Feb-18 17:19N 29°11' W 095°08'3 5.4
2018-Feb-18 16:46N 29°12' W 095°11'1 3.3
2018-Feb-18 16:20N 29°13' W 095°13'2 0.1
2018-Feb-18 03:44N 29°15' W 095°13'22 1.0
2018-Feb-17 05:02N 29°21' W 094°49'1 0.5
2018-Feb-17 03:26N 29°21' W 094°48'0 0.8
2018-Feb-17 02:59N 29°22' W 094°48'3 5.9
2018-Feb-17 02:30N 29°24' W 094°49'4 7.1
2018-Feb-17 01:59N 29°28' W 094°51'3 7.1
2018-Feb-17 01:30N 29°31' W 094°53'4 7.3
2018-Feb-17 01:00N 29°34' W 094°55'4 7.5
2018-Feb-17 00:30N 29°37' W 094°57'4 7.7
2018-Feb-17 00:00N 29°41' W 094°59'9 2.9
2018-Feb-16 21:02N 29°46' W 095°06'0 3.3
2018-Feb-16 21:00N 29°46' W 095°06'0 0.2
2018-Feb-16 20:26N 29°46' W 095°06'3 5.0
2018-Feb-16 19:46N 29°44' W 095°03'1 4.7
2018-Feb-16 19:30N 29°44' W 095°02'3 5.5
2018-Feb-16 19:00N 29°42' W 094°60'2 4.4
2018-Feb-16 18:30N 29°41' W 094°57'2 3.4
2018-Feb-16 17:59N 29°41' W 094°55'1 1.8
2018-Feb-16 17:30N 29°42' W 094°55'2 3.0
2018-Feb-16 16:58N 29°44' W 094°56'3 0.5
2018-Feb-16 10:43N 29°41' W 094°59'5 0.6
2018-Feb-16 02:46N 29°45' W 094°56'1 3.8
2018-Feb-16 02:23N 29°44' W 094°56'2 2.8
2018-Feb-16 01:34N 29°42' W 094°55'2 4.8
2018-Feb-16 01:13N 29°40' W 094°56'2 5.6
2018-Feb-16 00:55N 29°41' W 094°58'2 5.4
2018-Feb-16 00:29N 29°42' W 095°00'3 0.6
2018-Feb-15 19:00N 29°43' W 094°57'2 3.0
2018-Feb-15 18:21N 29°42' W 094°55'2 3.6
2018-Feb-15 17:44N 29°41' W 094°57'1 5.2
2018-Feb-15 17:30N 29°41' W 094°59'4 6.5
2018-Feb-15 16:54N 29°44' W 095°02'4 0.4
2018-Feb-15 06:30N 29°46' W 095°06'3 5.1
2018-Feb-15 06:00N 29°44' W 095°08'4 6.4
2018-Feb-15 05:18N 29°43' W 095°13'2 6.5
2018-Feb-15 04:58N 29°44' W 095°16'0 0.4
2018-Feb-15 04:25N 29°44' W 095°16'3 5.2
2018-Feb-15 03:47N 29°44' W 095°12'3 6.6
2018-Feb-15 03:22N 29°44' W 095°09'3 6.8
2018-Feb-15 02:54N 29°45' W 095°06'  

Dump ship's entire track history